createdAt,value
2022-11-05T00:01:04.674Z,3.23
2022-11-05T00:03:50.201Z,3.03
2022-11-05T00:06:35.429Z,2.77
2022-11-05T00:09:20.670Z,2.83
2022-11-05T00:12:07.811Z,2.40
2022-11-05T00:14:53.353Z,1.87
2022-11-05T00:17:25.004Z,2.00
2022-11-05T00:19:52.829Z,1.57
2022-11-05T00:22:38.176Z,1.90
2022-11-05T00:25:16.859Z,1.80
2022-11-05T00:27:52.824Z,1.67
2022-11-05T00:30:22.203Z,1.53
2022-11-05T00:32:51.519Z,1.70
2022-11-05T00:35:20.547Z,2.70
2022-11-05T00:37:50.235Z,1.63
2022-11-05T00:40:18.757Z,1.43
2022-11-05T00:43:04.451Z,1.60
2022-11-05T00:45:33.579Z,1.63
2022-11-05T00:48:18.751Z,1.90
2022-11-05T00:50:46.976Z,1.50
2022-11-05T00:53:15.063Z,1.53
2022-11-05T00:55:45.083Z,1.30
2022-11-05T00:58:18.437Z,1.50
2022-11-05T01:00:50.898Z,1.30
2022-11-05T01:03:22.548Z,1.30
2022-11-05T01:05:52.248Z,1.47
2022-11-05T01:08:26.794Z,1.40
2022-11-05T01:10:56.822Z,1.60
2022-11-05T01:13:27.124Z,1.50
2022-11-05T01:15:56.975Z,1.10
2022-11-05T01:18:25.524Z,1.40
2022-11-05T01:20:53.398Z,1.30
2022-11-05T01:23:22.299Z,1.20
2022-11-05T01:25:51.908Z,1.23
2022-11-05T01:28:24.742Z,1.13
2022-11-05T01:30:58.140Z,1.30
2022-11-05T01:33:28.483Z,1.43
2022-11-05T01:35:57.598Z,1.47
2022-11-05T01:38:25.406Z,1.20
2022-11-05T01:40:53.955Z,1.43
2022-11-05T01:43:39.983Z,1.37
2022-11-05T01:46:09.231Z,1.43
2022-11-05T01:48:38.723Z,1.37
2022-11-05T01:51:19.349Z,1.10
2022-11-05T01:53:52.888Z,1.60
2022-11-05T01:56:26.027Z,1.70
2022-11-05T01:58:57.705Z,2.00
2022-11-05T02:01:27.290Z,1.80
2022-11-05T02:04:00.542Z,1.50
2022-11-05T02:06:56.311Z,1.60
2022-11-05T02:09:27.622Z,1.93
2022-11-05T02:11:55.507Z,1.70
2022-11-05T02:14:27.591Z,1.90
2022-11-05T02:17:04.141Z,1.50
2022-11-05T02:19:56.702Z,1.40
2022-11-05T02:22:51.337Z,1.70
2022-11-05T02:25:58.439Z,1.63
2022-11-05T02:28:57.459Z,2.00
2022-11-05T02:31:35.125Z,1.60
2022-11-05T02:34:13.557Z,1.93
2022-11-05T02:36:47.424Z,1.80
2022-11-05T02:39:30.478Z,1.80
2022-11-05T02:42:07.406Z,2.27
2022-11-05T02:44:42.470Z,1.60
2022-11-05T02:47:23.211Z,1.60
2022-11-05T02:49:59.017Z,2.00
2022-11-05T02:52:34.060Z,1.47
2022-11-05T02:55:10.581Z,2.83
2022-11-05T02:57:38.573Z,1.50
2022-11-05T03:00:09.638Z,1.67
2022-11-05T03:02:38.965Z,1.60
2022-11-05T03:05:07.422Z,1.80
2022-11-05T03:07:47.966Z,1.70
2022-11-05T03:10:31.612Z,1.80
2022-11-05T03:13:10.338Z,1.67
2022-11-05T03:15:50.999Z,1.83
2022-11-05T03:18:27.619Z,1.93
2022-11-05T03:21:03.578Z,2.00
2022-11-05T03:23:38.097Z,3.27
2022-11-05T03:26:12.259Z,2.30
2022-11-05T03:28:44.124Z,1.63
2022-11-05T03:31:14.406Z,1.53
2022-11-05T03:33:45.541Z,1.83
2022-11-05T03:36:18.786Z,1.67
2022-11-05T03:38:50.510Z,1.50
2022-11-05T03:41:21.103Z,1.67
2022-11-05T03:43:52.531Z,1.80
2022-11-05T03:46:27.195Z,1.50
2022-11-05T03:49:00.024Z,1.40
2022-11-05T03:51:37.985Z,1.30
2022-11-05T03:54:06.660Z,1.70
2022-11-05T03:56:39.251Z,1.60
2022-11-05T03:59:09.251Z,1.57
2022-11-05T04:02:00.538Z,1.70
2022-11-05T04:04:29.781Z,1.50
2022-11-05T04:07:15.135Z,1.57
2022-11-05T04:10:02.677Z,1.53
2022-11-05T04:12:47.858Z,1.93
2022-11-05T04:15:15.759Z,1.20
2022-11-05T04:17:43.775Z,1.70
2022-11-05T04:20:30.664Z,1.40
2022-11-05T04:23:23.833Z,1.50
2022-11-05T04:26:00.414Z,1.57
2022-11-05T04:28:48.303Z,1.70
2022-11-05T04:31:15.135Z,1.40
2022-11-05T04:33:42.951Z,1.57
2022-11-05T04:36:12.129Z,1.60
2022-11-05T04:38:39.986Z,1.50
2022-11-05T04:41:14.888Z,1.50
2022-11-05T04:43:42.715Z,1.30
2022-11-05T04:46:10.995Z,1.20
2022-11-05T04:48:41.569Z,1.67
2022-11-05T04:51:09.527Z,1.23
2022-11-05T04:53:38.671Z,1.70
2022-11-05T04:56:13.304Z,1.37
2022-11-05T04:58:41.794Z,1.30
2022-11-05T05:01:13.719Z,1.40
2022-11-05T05:03:41.660Z,1.60
2022-11-05T05:06:09.936Z,1.33
2022-11-05T05:08:39.073Z,1.30
2022-11-05T05:11:08.759Z,1.50
2022-11-05T05:13:36.784Z,1.30
2022-11-05T05:16:07.117Z,1.50
2022-11-05T05:18:35.074Z,1.50
2022-11-05T05:21:21.231Z,1.60
2022-11-05T05:23:59.162Z,1.47
2022-11-05T05:26:28.584Z,1.63
2022-11-05T05:28:57.785Z,1.80
2022-11-05T05:31:25.904Z,1.53
2022-11-05T05:33:56.849Z,1.43
2022-11-05T05:36:25.921Z,1.50
2022-11-05T05:38:55.083Z,1.60
2022-11-05T05:41:23.152Z,1.23
2022-11-05T05:43:53.911Z,1.40
2022-11-05T05:46:21.714Z,1.53
2022-11-05T05:48:51.445Z,1.70
2022-11-05T05:51:29.107Z,1.67
2022-11-05T05:53:58.516Z,1.67
2022-11-05T05:56:26.341Z,1.50
2022-11-05T05:59:02.181Z,1.53
2022-11-05T06:01:29.989Z,1.40
2022-11-05T06:03:57.792Z,1.63
2022-11-05T06:06:25.604Z,1.17
2022-11-05T06:08:53.381Z,1.30
2022-11-05T06:11:22.614Z,1.47
2022-11-05T06:16:39.833Z,1.43
2022-11-05T06:19:15.266Z,1.40
2022-11-05T06:21:43.100Z,1.30
2022-11-05T06:24:11.498Z,1.40
2022-11-05T06:26:43.127Z,1.23
2022-11-05T06:29:11.549Z,1.67
2022-11-05T06:32:06.114Z,1.13
2022-11-05T06:34:33.897Z,1.27
2022-11-05T06:37:01.696Z,1.50
2022-11-05T06:39:29.606Z,1.17
2022-11-05T06:44:46.550Z,1.13
2022-11-05T06:47:14.411Z,1.30
2022-11-05T06:49:42.207Z,1.27
2022-11-05T06:52:09.977Z,1.30
2022-11-05T06:54:37.791Z,1.33
2022-11-05T06:57:09.490Z,1.27
2022-11-05T06:59:37.483Z,1.13
2022-11-05T07:02:05.782Z,1.30
2022-11-05T07:04:33.928Z,1.40
2022-11-05T07:07:02.046Z,1.30
2022-11-05T07:09:30.270Z,1.10
2022-11-05T07:11:58.088Z,1.40
2022-11-05T07:14:27.218Z,1.27
2022-11-05T07:16:55.038Z,1.10
2022-11-05T07:19:22.840Z,1.20
2022-11-05T07:21:50.879Z,1.37
2022-11-05T07:24:18.953Z,1.37
2022-11-05T07:26:49.765Z,1.33
2022-11-05T07:29:17.543Z,1.40
2022-11-05T07:31:48.769Z,1.20
2022-11-05T07:37:36.093Z,1.60
2022-11-05T07:40:04.515Z,1.50
2022-11-05T07:42:32.522Z,1.40
2022-11-05T07:45:00.356Z,1.63
2022-11-05T07:47:38.658Z,1.40
2022-11-05T07:50:40.354Z,1.50
2022-11-05T07:53:22.852Z,1.43
2022-11-05T07:59:29.122Z,1.73
2022-11-05T08:02:03.333Z,1.90
2022-11-05T08:04:36.720Z,1.67
2022-11-05T08:14:12.965Z,1.90
2022-11-05T08:17:00.121Z,1.93
2022-11-05T08:19:51.149Z,2.27
2022-11-05T08:22:49.203Z,2.17
2022-11-05T08:25:27.601Z,1.93
2022-11-05T08:27:58.950Z,2.30
2022-11-05T08:30:35.891Z,2.13
2022-11-05T08:33:07.846Z,1.97
2022-11-05T08:35:47.665Z,2.10
2022-11-05T08:38:51.663Z,2.07
2022-11-05T08:41:26.035Z,2.50
2022-11-05T08:46:32.052Z,2.47
2022-11-05T08:48:59.968Z,2.13
2022-11-05T08:51:27.831Z,2.10
2022-11-05T08:54:08.000Z,2.43
2022-11-05T08:56:57.355Z,2.33
2022-11-05T08:59:42.646Z,2.53
2022-11-05T09:02:15.293Z,2.63
2022-11-05T09:05:02.599Z,2.47
2022-11-05T09:07:31.534Z,2.57
2022-11-05T09:10:01.003Z,2.73
2022-11-05T09:12:30.296Z,2.63
2022-11-05T09:15:06.592Z,2.60
2022-11-05T09:17:34.786Z,2.90
2022-11-05T09:20:07.073Z,2.87
2022-11-05T09:22:43.487Z,2.80
2022-11-05T09:25:16.433Z,2.63
2022-11-05T09:27:46.777Z,3.20
2022-11-05T09:30:22.369Z,3.13
2022-11-05T09:32:50.213Z,3.33
2022-11-05T09:35:20.224Z,2.77
2022-11-05T09:38:03.009Z,2.77
2022-11-05T09:40:34.481Z,2.63
2022-11-05T09:43:11.094Z,2.80
2022-11-05T09:46:20.352Z,2.40
2022-11-05T09:48:54.767Z,2.50
2022-11-05T09:51:24.330Z,2.37
2022-11-05T09:53:53.968Z,2.20
2022-11-05T09:56:27.254Z,2.33
2022-11-05T09:59:03.674Z,2.40
2022-11-05T10:01:58.959Z,1.90
2022-11-05T10:04:45.244Z,2.20
2022-11-05T10:07:24.281Z,2.13
2022-11-05T10:09:56.501Z,2.20
2022-11-05T10:12:33.654Z,2.13
2022-11-05T10:15:11.537Z,2.20
2022-11-05T10:17:43.154Z,2.40
2022-11-05T10:20:24.504Z,2.37
2022-11-05T10:23:00.118Z,2.30
2022-11-05T10:25:32.344Z,2.50
2022-11-05T10:28:07.284Z,2.57
2022-11-05T10:30:38.115Z,2.93
2022-11-05T10:33:11.700Z,2.80
2022-11-05T10:36:03.384Z,2.50
2022-11-05T10:38:43.210Z,2.60
2022-11-05T10:48:05.267Z,2.40
2022-11-05T10:51:10.989Z,2.60
2022-11-05T11:01:08.184Z,2.53
2022-11-05T11:03:42.991Z,3.00
2022-11-05T11:09:03.944Z,2.40
2022-11-05T11:11:43.145Z,2.33
2022-11-05T11:14:32.295Z,2.50
2022-11-05T11:17:29.288Z,2.57
2022-11-05T11:20:29.118Z,3.20
2022-11-05T11:23:14.631Z,2.20
2022-11-05T11:25:56.735Z,2.30
2022-11-05T11:28:34.804Z,2.23
2022-11-05T11:31:06.904Z,2.10
2022-11-05T11:36:36.096Z,2.30
2022-11-05T11:39:06.396Z,2.53
2022-11-05T11:41:45.783Z,2.10
2022-11-05T11:44:17.516Z,1.90
2022-11-05T11:46:49.798Z,2.43
2022-11-05T11:49:33.204Z,1.63
2022-11-05T11:52:05.937Z,1.53
2022-11-05T11:54:38.363Z,1.87
2022-11-05T11:57:22.507Z,2.00
2022-11-05T12:00:08.220Z,1.67
2022-11-05T12:03:12.089Z,1.87
2022-11-05T12:06:08.362Z,2.00
2022-11-05T12:09:17.052Z,2.10
2022-11-05T12:11:51.231Z,1.97
2022-11-05T12:14:38.575Z,1.90
2022-11-05T12:17:26.457Z,1.80
2022-11-05T12:23:44.195Z,1.80
2022-11-05T12:26:24.107Z,1.93
2022-11-05T12:29:35.735Z,2.40
2022-11-05T12:32:52.188Z,1.87
2022-11-05T12:36:03.717Z,2.30
2022-11-05T12:42:13.718Z,2.17
2022-11-05T12:48:07.479Z,2.07
2022-11-05T12:50:45.881Z,1.87
2022-11-05T12:56:45.962Z,2.07
2022-11-05T12:59:37.485Z,2.53
2022-11-05T13:02:17.842Z,2.87
2022-11-05T13:04:50.870Z,3.37
2022-11-05T13:07:34.373Z,2.47
2022-11-05T13:10:09.089Z,1.70
2022-11-05T13:12:53.209Z,1.90
2022-11-05T13:18:52.903Z,1.80
2022-11-05T13:21:29.740Z,1.90
2022-11-05T13:24:05.363Z,1.97
2022-11-05T13:26:46.918Z,1.53
2022-11-05T13:29:19.678Z,1.50
2022-11-05T13:31:54.335Z,1.97
2022-11-05T13:34:25.739Z,1.73
2022-11-05T13:37:15.125Z,1.53
2022-11-05T13:39:48.204Z,1.77
2022-11-05T13:42:57.718Z,1.90
2022-11-05T13:45:59.053Z,1.80
2022-11-05T13:49:03.752Z,1.83
2022-11-05T13:52:05.738Z,2.03
2022-11-05T13:54:58.266Z,1.70
2022-11-05T14:01:39.492Z,1.93
2022-11-05T14:04:15.334Z,2.27
2022-11-05T14:09:53.724Z,1.77
2022-11-05T14:12:35.778Z,1.97
2022-11-05T14:15:27.753Z,2.27
2022-11-05T14:18:40.977Z,1.57
2022-11-05T14:21:53.137Z,1.77
2022-11-05T14:25:07.714Z,2.00
2022-11-05T14:27:47.840Z,2.00
2022-11-05T14:30:44.809Z,2.17
2022-11-05T14:36:37.524Z,6.80
2022-11-05T14:39:23.376Z,5.30
2022-11-05T14:45:31.267Z,2.93
2022-11-05T14:48:06.707Z,2.10
2022-11-05T14:50:40.712Z,3.40
2022-11-05T14:53:27.348Z,2.20
2022-11-05T14:56:07.266Z,2.47
2022-11-05T14:58:47.961Z,6.07
2022-11-05T15:01:57.142Z,24.87
2022-11-05T15:04:30.463Z,32.23
2022-11-05T15:10:37.383Z,2.80
2022-11-05T15:13:08.048Z,2.20
2022-11-05T15:15:44.580Z,2.67
2022-11-05T15:18:37.748Z,2.50
2022-11-05T15:21:09.594Z,2.60
2022-11-05T15:24:02.574Z,2.37
2022-11-05T15:32:34.594Z,2.60
2022-11-05T15:35:24.761Z,3.50
2022-11-05T15:38:02.801Z,2.70
2022-11-05T15:40:34.663Z,2.60
2022-11-05T15:43:17.444Z,2.53
2022-11-05T15:46:05.541Z,2.27
2022-11-05T15:52:00.965Z,2.43
2022-11-05T15:57:23.758Z,3.50
2022-11-05T16:00:02.813Z,3.27
2022-11-05T16:02:38.421Z,2.93
2022-11-05T16:05:13.321Z,2.80
2022-11-05T16:07:54.133Z,2.83
2022-11-05T16:10:32.514Z,3.03
2022-11-05T16:13:35.003Z,3.90
2022-11-05T16:16:07.351Z,2.87
2022-11-05T16:18:52.977Z,3.20
2022-11-05T16:21:37.955Z,2.70
2022-11-05T16:24:28.218Z,3.47
2022-11-05T16:27:03.010Z,3.23
2022-11-05T16:29:33.846Z,3.27
2022-11-05T16:32:30.170Z,3.10
2022-11-05T16:38:03.829Z,3.73
2022-11-05T16:40:33.280Z,3.30
2022-11-05T16:43:49.584Z,2.87
2022-11-05T16:46:21.365Z,3.03
2022-11-05T16:52:02.802Z,4.13
2022-11-05T16:57:51.781Z,3.60
2022-11-05T17:00:48.628Z,3.50
2022-11-05T17:03:29.170Z,3.40
2022-11-05T17:06:15.096Z,3.43
2022-11-05T17:08:46.463Z,4.30
2022-11-05T17:14:39.125Z,4.93
2022-11-05T17:17:14.394Z,7.90
2022-11-05T17:22:49.602Z,4.80
2022-11-05T17:25:25.972Z,4.70
2022-11-05T17:28:06.214Z,3.50
2022-11-05T17:30:44.674Z,5.13
2022-11-05T17:33:25.241Z,4.30
2022-11-05T17:36:13.499Z,3.30
2022-11-05T17:38:49.138Z,3.17
2022-11-05T17:41:25.620Z,3.63
2022-11-05T17:44:01.796Z,3.20
2022-11-05T17:46:35.612Z,3.00
2022-11-05T17:49:12.670Z,12.57
2022-11-05T17:51:43.732Z,19.23
2022-11-05T17:54:15.475Z,6.50
2022-11-05T17:56:44.762Z,5.33
2022-11-05T17:59:13.015Z,4.00
2022-11-05T18:01:45.845Z,3.13
2022-11-05T18:04:14.316Z,3.30
2022-11-05T18:07:10.570Z,3.53
2022-11-05T18:10:10.616Z,4.00
2022-11-05T18:15:32.444Z,3.63
2022-11-05T18:18:53.540Z,3.10
2022-11-05T18:22:03.566Z,3.90
2022-11-05T18:24:40.450Z,3.77
2022-11-05T18:30:22.248Z,3.90
2022-11-05T18:32:58.350Z,3.83
2022-11-05T18:35:32.121Z,3.67
2022-11-05T18:37:59.985Z,3.93
2022-11-05T18:41:13.027Z,3.63
2022-11-05T18:43:47.599Z,4.57
2022-11-05T18:49:28.359Z,6.73
2022-11-05T18:52:01.197Z,4.17
2022-11-05T18:54:33.148Z,4.50
2022-11-05T18:57:01.145Z,4.50
2022-11-05T18:59:39.373Z,5.17
2022-11-05T19:02:14.522Z,4.10
2022-11-05T19:05:27.351Z,5.07
2022-11-05T19:07:47.839Z,4.57
2022-11-05T19:10:15.681Z,4.67
2022-11-05T19:12:45.200Z,3.90
2022-11-05T19:15:14.684Z,4.47
2022-11-05T19:20:50.951Z,3.67
2022-11-05T19:23:21.775Z,4.03
2022-11-05T19:25:49.627Z,3.80
2022-11-05T19:28:17.472Z,4.20
2022-11-05T19:30:47.181Z,4.33
2022-11-05T19:33:15.038Z,4.23
2022-11-05T19:35:45.883Z,3.90
2022-11-05T19:38:15.649Z,3.83
2022-11-05T19:40:51.957Z,4.07
2022-11-05T19:43:21.169Z,3.90
2022-11-05T19:45:53.817Z,5.90
2022-11-05T19:48:29.595Z,5.73
2022-11-05T19:50:57.566Z,7.40
2022-11-05T19:53:25.456Z,7.33
2022-11-05T19:58:42.908Z,4.67
2022-11-05T20:01:13.449Z,4.70
2022-11-05T20:04:11.781Z,6.57
2022-11-05T20:06:41.620Z,4.90
2022-11-05T20:12:03.429Z,3.70
2022-11-05T20:14:31.367Z,3.77
2022-11-05T20:17:18.185Z,3.60
2022-11-05T20:19:46.084Z,3.00
2022-11-05T20:22:13.930Z,3.30
2022-11-05T20:24:41.804Z,3.50
2022-11-05T20:27:44.914Z,3.33
2022-11-05T20:30:14.074Z,4.30
2022-11-05T20:33:07.850Z,3.53
2022-11-05T20:35:44.932Z,3.40
2022-11-05T20:38:13.490Z,3.00
2022-11-05T20:40:43.422Z,3.50
2022-11-05T20:43:11.590Z,3.43
2022-11-05T20:45:46.128Z,3.43
2022-11-05T20:48:16.976Z,3.30
2022-11-05T20:50:46.556Z,3.30
2022-11-05T20:53:14.615Z,3.40
2022-11-05T20:55:45.184Z,3.00
2022-11-05T20:58:14.330Z,3.03
2022-11-05T21:00:51.862Z,3.00
2022-11-05T21:03:21.589Z,3.17
2022-11-05T21:05:51.288Z,3.87
2022-11-05T21:08:20.049Z,3.30
2022-11-05T21:10:51.199Z,3.53
2022-11-05T21:13:19.989Z,3.90
2022-11-05T21:15:50.212Z,3.57
2022-11-05T21:18:18.985Z,3.50
2022-11-05T21:20:48.825Z,3.27
2022-11-05T21:23:17.557Z,3.30
2022-11-05T21:25:46.108Z,3.53
2022-11-05T21:28:15.521Z,3.97
2022-11-05T21:30:45.992Z,3.73
2022-11-05T21:33:14.936Z,3.47
2022-11-05T21:35:44.825Z,4.17
2022-11-05T21:38:15.622Z,4.27
2022-11-05T21:40:44.880Z,3.40
2022-11-05T21:43:14.521Z,3.93
2022-11-05T21:45:44.251Z,4.07
2022-11-05T21:48:15.105Z,4.20
2022-11-05T21:51:00.953Z,4.10
2022-11-05T21:53:50.590Z,3.70
2022-11-05T21:56:37.538Z,3.87
2022-11-05T21:59:25.635Z,4.53
2022-11-05T22:02:01.237Z,3.53
2022-11-05T22:04:29.710Z,4.30
2022-11-05T22:06:58.208Z,3.97
2022-11-05T22:09:29.014Z,4.37
2022-11-05T22:12:04.479Z,3.30
2022-11-05T22:14:32.347Z,4.10
2022-11-05T22:17:01.153Z,3.80
2022-11-05T22:19:31.466Z,4.00
2022-11-05T22:22:03.430Z,4.03
2022-11-05T22:24:38.506Z,3.13
2022-11-05T22:27:12.733Z,3.20
2022-11-05T22:29:40.865Z,3.83
2022-11-05T22:32:10.420Z,3.73
2022-11-05T22:34:42.310Z,3.53
2022-11-05T22:37:11.239Z,3.60
2022-11-05T22:39:40.472Z,3.20
2022-11-05T22:42:10.906Z,2.93
2022-11-05T22:44:38.919Z,3.43
2022-11-05T22:47:07.150Z,3.40
2022-11-05T22:49:35.563Z,3.83
2022-11-05T22:52:04.089Z,3.33
2022-11-05T22:54:39.088Z,3.03
2022-11-05T22:57:09.184Z,3.57
2022-11-05T22:59:37.040Z,2.80
2022-11-05T23:02:09.862Z,3.20
2022-11-05T23:04:38.422Z,3.50
2022-11-05T23:07:27.515Z,3.20
2022-11-05T23:10:13.170Z,3.40
2022-11-05T23:12:46.740Z,3.00
2022-11-05T23:15:37.256Z,3.60
2022-11-05T23:18:23.083Z,3.20
2022-11-05T23:21:08.597Z,3.10
2022-11-05T23:24:05.407Z,3.30
2022-11-05T23:26:54.174Z,3.10
2022-11-05T23:29:25.462Z,3.20
2022-11-05T23:32:11.386Z,4.00
2022-11-05T23:34:41.767Z,3.33
2022-11-05T23:37:26.944Z,3.10
2022-11-05T23:39:55.042Z,3.50
2022-11-05T23:42:40.258Z,3.57
2022-11-05T23:45:29.659Z,3.33
2022-11-05T23:48:16.941Z,3.70
2022-11-05T23:50:52.284Z,2.70
2022-11-05T23:53:20.753Z,3.77
2022-11-05T23:55:50.909Z,3.00
2022-11-05T23:58:19.685Z,3.80
